createdAt,value
2022-12-25T00:02:26.236Z,100518.13
2022-12-25T00:07:30.136Z,100516.41
2022-12-25T00:12:34.440Z,100504.88
2022-12-25T00:17:37.207Z,100514.81
2022-12-25T00:22:39.988Z,100520.44
2022-12-25T00:27:44.229Z,100515.19
2022-12-25T00:32:47.034Z,100504.44
2022-12-25T00:37:49.993Z,100501.75
2022-12-25T00:42:54.403Z,100502.72
2022-12-25T00:47:57.419Z,100501.88
2022-12-25T00:53:00.357Z,100505.56
2022-12-25T00:58:04.493Z,100498.44
2022-12-25T01:03:07.262Z,100506.63
2022-12-25T01:08:10.042Z,100483.31
2022-12-25T01:13:14.179Z,100505.91
2022-12-25T01:18:17.118Z,100520.34
2022-12-25T01:23:19.971Z,100538.06
2022-12-25T01:28:24.082Z,100538.19
2022-12-25T01:33:26.918Z,100537.09
2022-12-25T01:38:29.679Z,100550.53
2022-12-25T01:43:34.107Z,100546.53
2022-12-25T01:48:37.994Z,100536.53
2022-12-25T01:53:40.827Z,100549.59
2022-12-25T01:58:45.037Z,100556.44
2022-12-25T02:03:47.772Z,100559.66
2022-12-25T02:08:50.668Z,100536.50
2022-12-25T02:13:54.814Z,100556.19
2022-12-25T02:18:58.980Z,100546.78
2022-12-25T02:24:33.448Z,100558.88
2022-12-25T02:29:43.738Z,100551.06
2022-12-25T02:34:49.021Z,100555.94
2022-12-25T02:40:00.591Z,100557.28
2022-12-25T02:45:22.702Z,100552.38
2022-12-25T02:50:43.234Z,100556.63
2022-12-25T02:56:03.440Z,100545.63
2022-12-25T03:01:27.508Z,100541.81
2022-12-25T03:06:46.648Z,100547.81
2022-12-25T03:11:51.660Z,100551.34
2022-12-25T03:16:56.875Z,100555.91
2022-12-25T03:22:17.190Z,100558.09
2022-12-25T03:27:19.935Z,100553.53
2022-12-25T03:32:28.314Z,100565.47
2022-12-25T03:37:52.514Z,100570.44
2022-12-25T03:43:14.693Z,100561.25
2022-12-25T03:48:36.338Z,100577.38
2022-12-25T03:53:58.975Z,100577.81
2022-12-25T03:59:23.593Z,100590.59
2022-12-25T04:04:45.490Z,100592.66
2022-12-25T04:10:05.651Z,100583.25
2022-12-25T04:15:27.576Z,100584.19
2022-12-25T04:20:49.445Z,100580.75
2022-12-25T04:26:09.703Z,100589.06
2022-12-25T04:31:30.027Z,100590.22
2022-12-25T04:36:34.202Z,100592.28
2022-12-25T04:41:37.019Z,100589.84
2022-12-25T04:46:39.862Z,100600.78
2022-12-25T04:51:44.115Z,100600.13
2022-12-25T04:56:46.873Z,100608.16
2022-12-25T05:01:49.755Z,100597.00
2022-12-25T05:06:53.976Z,100590.78
2022-12-25T05:11:56.711Z,100593.69
2022-12-25T05:16:59.454Z,100590.28
2022-12-25T05:22:03.609Z,100581.56
2022-12-25T05:27:06.372Z,100582.66
2022-12-25T05:32:09.143Z,100571.31
2022-12-25T05:37:13.527Z,100567.97
2022-12-25T05:42:16.488Z,100568.94
2022-12-25T05:47:19.275Z,100553.09
2022-12-25T05:52:23.493Z,100558.56
2022-12-25T05:57:26.335Z,100559.72
2022-12-25T06:02:29.356Z,100550.09
2022-12-25T06:07:33.670Z,100536.81
2022-12-25T06:12:36.506Z,100537.78
2022-12-25T06:17:39.290Z,100538.84
2022-12-25T06:22:43.503Z,100541.75
2022-12-25T06:27:46.331Z,100561.34
2022-12-25T06:32:49.082Z,100542.81
2022-12-25T06:37:53.194Z,100539.41
2022-12-25T06:42:56.213Z,100555.69
2022-12-25T06:47:59.057Z,100568.22
2022-12-25T06:53:03.215Z,100574.56
2022-12-25T06:58:06.045Z,100568.44
2022-12-25T07:03:08.876Z,100571.25
2022-12-25T07:08:13.049Z,100573.19
2022-12-25T07:13:15.985Z,100574.16
2022-12-25T07:18:18.837Z,100587.63
2022-12-25T07:23:23.088Z,100594.81
2022-12-25T07:28:25.975Z,100604.69
2022-12-25T07:33:28.773Z,100601.13
2022-12-25T07:38:32.988Z,100587.13
2022-12-25T07:43:35.721Z,100591.63
2022-12-25T07:48:38.628Z,100582.84
2022-12-25T07:53:43.043Z,100587.22
2022-12-25T07:58:45.977Z,100574.69
2022-12-25T08:03:52.241Z,100574.69
2022-12-25T08:08:56.496Z,100568.31
2022-12-25T08:13:59.241Z,100581.75
2022-12-25T08:19:02.065Z,100556.84
2022-12-25T08:24:06.839Z,100557.84
2022-12-25T08:29:09.674Z,100549.59
2022-12-25T08:34:12.639Z,100527.78
2022-12-25T08:39:16.866Z,100536.34
2022-12-25T08:44:19.846Z,100537.44
2022-12-25T08:49:22.693Z,100545.94
2022-12-25T08:54:27.098Z,100538.66
2022-12-25T08:59:29.858Z,100543.50
2022-12-25T09:04:32.684Z,100528.06
2022-12-25T09:09:37.017Z,100516.22
2022-12-25T09:14:39.844Z,100537.31
2022-12-25T09:19:42.673Z,100528.31
2022-12-25T09:24:46.927Z,100522.72
2022-12-25T09:29:50.287Z,100525.41
2022-12-25T09:34:53.051Z,100521.88
2022-12-25T09:39:57.176Z,100504.88
2022-12-25T09:45:01.824Z,100502.09
2022-12-25T09:50:07.994Z,100506.59
2022-12-25T09:55:19.783Z,100508.28
2022-12-25T10:00:23.961Z,100517.19
2022-12-25T10:05:35.729Z,100509.16
2022-12-25T10:10:51.903Z,100497.47
2022-12-25T10:15:59.142Z,100492.34
2022-12-25T10:21:03.954Z,100488.38
2022-12-25T10:26:15.446Z,100477.44
2022-12-25T10:31:21.959Z,100464.59
2022-12-25T10:36:25.595Z,100468.00
2022-12-25T10:41:40.963Z,100451.81
2022-12-25T10:46:43.957Z,100440.06
2022-12-25T10:51:46.832Z,100440.38
2022-12-25T10:56:58.845Z,100450.25
2022-12-25T11:02:05.679Z,100430.16
2022-12-25T11:07:09.678Z,100424.75
2022-12-25T11:12:18.301Z,100409.59
2022-12-25T11:17:23.066Z,100394.78
2022-12-25T11:22:26.434Z,100396.91
2022-12-25T11:27:33.593Z,100385.81
2022-12-25T11:32:39.022Z,100366.81
2022-12-25T11:37:43.669Z,100336.22
2022-12-25T11:42:49.503Z,100317.97
2022-12-25T11:47:53.115Z,100313.00
2022-12-25T11:52:56.003Z,100315.47
2022-12-25T11:58:02.435Z,100310.84
2022-12-25T12:03:07.980Z,100327.53
2022-12-25T12:08:11.010Z,100326.09
2022-12-25T12:13:27.072Z,100315.75
2022-12-25T12:18:31.220Z,100285.13
2022-12-25T12:23:36.078Z,100255.63
2022-12-25T12:28:44.235Z,100246.84
2022-12-25T12:33:51.827Z,100275.72
2022-12-25T12:38:54.910Z,100273.41
2022-12-25T12:43:59.441Z,100289.84
2022-12-25T12:49:09.659Z,100291.22
2022-12-25T12:54:20.779Z,100282.00
2022-12-25T12:59:25.144Z,100285.88
2022-12-25T13:04:35.317Z,100283.44
2022-12-25T13:09:46.568Z,100276.50
2022-12-25T13:14:50.947Z,100282.59
2022-12-25T13:19:56.375Z,100275.28
2022-12-25T13:25:00.356Z,100266.13
2022-12-25T13:30:14.838Z,100255.31
2022-12-25T13:35:17.723Z,100251.41
2022-12-25T13:40:22.740Z,100251.19
2022-12-25T13:45:27.923Z,100248.50
2022-12-25T13:50:31.646Z,100242.28
2022-12-25T13:55:34.447Z,100243.03
2022-12-25T14:00:39.554Z,100225.84
2022-12-25T14:05:43.669Z,100214.88
2022-12-25T14:10:48.212Z,100195.50
2022-12-25T14:15:53.300Z,100220.34
2022-12-25T14:20:59.048Z,100230.22
2022-12-25T14:26:01.851Z,100224.63
2022-12-25T14:31:06.402Z,100229.00
2022-12-25T14:36:10.681Z,100237.69
2022-12-25T14:41:25.896Z,100239.25
2022-12-25T14:46:32.370Z,100217.16
2022-12-25T14:51:36.332Z,100211.94
2022-12-25T14:56:40.052Z,100209.38
2022-12-25T15:01:44.701Z,100196.31
2022-12-25T15:06:53.969Z,100197.16
2022-12-25T15:11:57.167Z,100180.31
2022-12-25T15:17:01.818Z,100167.88
2022-12-25T15:22:04.836Z,100157.06
2022-12-25T15:27:10.443Z,100146.31
2022-12-25T15:32:17.497Z,100136.44
2022-12-25T15:37:20.341Z,100166.56
2022-12-25T15:42:24.023Z,100158.63
2022-12-25T15:47:28.208Z,100148.53
2022-12-25T15:52:31.146Z,100119.88
2022-12-25T15:57:35.078Z,100133.16
2022-12-25T16:02:39.429Z,100116.84
2022-12-25T16:07:42.436Z,100119.28
2022-12-25T16:12:45.391Z,100103.19
2022-12-25T16:17:49.506Z,100102.31
2022-12-25T16:22:52.263Z,100085.25
2022-12-25T16:27:55.037Z,100075.50
2022-12-25T16:32:59.244Z,100072.81
2022-12-25T16:38:02.041Z,100056.97
2022-12-25T16:43:04.819Z,100050.75
2022-12-25T16:48:09.224Z,100047.22
2022-12-25T16:53:12.484Z,100047.31
2022-12-25T16:58:15.226Z,100042.94
2022-12-25T17:03:19.541Z,100032.44
2022-12-25T17:08:22.542Z,100012.59
2022-12-25T17:13:25.321Z,99995.50
2022-12-25T17:18:29.593Z,100015.03
2022-12-25T17:23:32.577Z,100006.38
2022-12-25T17:28:35.571Z,100003.78
2022-12-25T17:33:40.176Z,99979.78
2022-12-25T17:38:49.273Z,99977.22
2022-12-25T17:43:52.058Z,99964.06
2022-12-25T17:48:56.734Z,99960.53
2022-12-25T17:54:00.709Z,99969.66
2022-12-25T17:59:06.614Z,99958.94
2022-12-25T18:04:11.053Z,99951.03
2022-12-25T18:09:13.935Z,99934.94
2022-12-25T18:14:17.011Z,99937.63
2022-12-25T18:19:21.555Z,99931.53
2022-12-25T18:24:24.384Z,99923.38
2022-12-25T18:29:27.386Z,99924.22
2022-12-25T18:34:31.785Z,99926.28
2022-12-25T18:39:34.573Z,99928.25
2022-12-25T18:44:37.523Z,99924.00
2022-12-25T18:49:41.616Z,99945.44
2022-12-25T18:54:44.581Z,99931.19
2022-12-25T18:59:47.564Z,99936.81
2022-12-25T19:04:52.628Z,99937.66
2022-12-25T19:09:55.756Z,99931.53
2022-12-25T19:14:59.030Z,99924.63
2022-12-25T19:20:03.428Z,99918.41
2022-12-25T19:25:07.378Z,99928.28
2022-12-25T19:30:11.602Z,99922.31
2022-12-25T19:35:15.878Z,99912.31
2022-12-25T19:40:18.880Z,99910.97
2022-12-25T19:45:21.817Z,99891.31
2022-12-25T19:50:28.411Z,99894.34
2022-12-25T19:55:32.840Z,99899.16
2022-12-25T20:00:35.701Z,99896.97
2022-12-25T20:05:39.862Z,99892.78
2022-12-25T20:10:44.348Z,99893.25
2022-12-25T20:15:47.128Z,99885.66
2022-12-25T20:20:51.266Z,99886.97
2022-12-25T20:25:54.085Z,99877.22
2022-12-25T20:30:57.195Z,99888.66
2022-12-25T20:36:01.821Z,99877.94
2022-12-25T20:46:29.331Z,99893.53
2022-12-25T20:51:33.671Z,99884.56
2022-12-25T20:56:36.680Z,99898.47
2022-12-25T21:01:39.852Z,99901.31
2022-12-25T21:06:44.065Z,99893.88
2022-12-25T21:11:47.148Z,99887.38
2022-12-25T21:16:50.286Z,99887.94
2022-12-25T21:21:54.810Z,99892.31
2022-12-25T21:26:57.764Z,99899.03
2022-12-25T21:32:17.950Z,99901.69
2022-12-25T21:37:23.135Z,99898.75
2022-12-25T21:42:25.905Z,99878.84
2022-12-25T21:47:59.784Z,99884.22
2022-12-25T21:52:52.964Z,99880.28
2022-12-25T21:57:55.951Z,99873.78
2022-12-25T22:02:58.924Z,99883.69
2022-12-25T22:08:03.319Z,99888.66
2022-12-25T22:13:23.518Z,99906.38
2022-12-25T22:18:44.041Z,99906.47
2022-12-25T22:23:48.280Z,99903.16
2022-12-25T22:28:51.038Z,99882.38
2022-12-25T22:33:53.852Z,99899.91
2022-12-25T22:38:58.030Z,99904.78
2022-12-25T22:44:17.883Z,99901.94
2022-12-25T22:49:21.267Z,99900.56
2022-12-25T22:54:25.501Z,99900.16
2022-12-25T22:59:28.292Z,99908.22
2022-12-25T23:04:31.165Z,99898.91
2022-12-25T23:09:35.337Z,99872.31
2022-12-25T23:14:41.599Z,99862.03
2022-12-25T23:20:01.991Z,99860.06
2022-12-25T23:25:28.773Z,99868.53
2022-12-25T23:30:33.307Z,99865.84
2022-12-25T23:35:36.206Z,99848.75
2022-12-25T23:40:40.338Z,99856.09
2022-12-25T23:45:43.115Z,99875.91
2022-12-25T23:50:45.877Z,99877.44
2022-12-25T23:55:55.277Z,99874.16
